createdAt,value
2018-05-23T00:01:33.868Z,16.15
2018-05-23T00:04:03.142Z,16.29
2018-05-23T00:06:31.545Z,16.30
2018-05-23T00:09:00.164Z,16.30
2018-05-23T00:11:28.526Z,16.18
2018-05-23T00:13:57.463Z,16.29
2018-05-23T00:16:25.814Z,16.30
2018-05-23T00:18:54.484Z,16.30
2018-05-23T00:21:23.314Z,16.26
2018-05-23T00:23:51.688Z,16.29
2018-05-23T00:26:21.703Z,16.27
2018-05-23T00:28:50.121Z,16.24
2018-05-23T00:31:18.502Z,16.29
2018-05-23T00:33:46.928Z,16.35
2018-05-23T00:36:15.301Z,16.28
2018-05-23T00:38:43.678Z,16.25
2018-05-23T00:41:13.301Z,16.24
2018-05-23T00:43:41.743Z,16.19
2018-05-23T00:46:10.086Z,16.20
2018-05-23T00:48:39.587Z,16.21
2018-05-23T00:51:09.551Z,16.24
2018-05-23T00:53:37.966Z,16.31
2018-05-23T00:56:07.234Z,16.20
2018-05-23T00:58:37.430Z,16.16
2018-05-23T01:01:05.782Z,16.11
2018-05-23T01:03:34.810Z,16.16
2018-05-23T01:06:03.453Z,16.20
2018-05-23T01:08:32.507Z,16.06
2018-05-23T01:11:01.486Z,16.10
2018-05-23T01:13:29.862Z,16.10
2018-05-23T01:15:58.363Z,16.15
2018-05-23T01:18:26.859Z,16.17
2018-05-23T01:20:55.556Z,16.21
2018-05-23T01:23:25.424Z,16.13
2018-05-23T01:25:55.182Z,16.18
2018-05-23T01:28:23.521Z,16.06
2018-05-23T01:30:52.731Z,16.12
2018-05-23T01:33:21.062Z,16.16
2018-05-23T01:35:50.230Z,16.24
2018-05-23T01:38:18.829Z,16.25
2018-05-23T01:40:47.209Z,16.23
2018-05-23T01:43:15.546Z,16.29
2018-05-23T01:45:43.974Z,16.28
2018-05-23T01:48:14.124Z,16.34
2018-05-23T01:50:42.494Z,16.27
2018-05-23T01:53:10.905Z,16.38
2018-05-23T01:55:39.498Z,16.32
2018-05-23T01:58:07.882Z,16.37
2018-05-23T02:00:36.985Z,16.41
2018-05-23T02:03:05.322Z,16.30
2018-05-23T02:05:33.688Z,16.27
2018-05-23T02:08:03.073Z,16.20
2018-05-23T02:10:31.790Z,16.16
2018-05-23T02:13:00.180Z,16.17
2018-05-23T02:15:28.540Z,16.21
2018-05-23T02:17:56.883Z,16.20
2018-05-23T02:20:26.374Z,16.29
2018-05-23T02:22:55.925Z,16.23
2018-05-23T02:25:24.509Z,16.20
2018-05-23T02:27:53.388Z,16.15
2018-05-23T02:30:21.802Z,16.11
2018-05-23T02:32:50.206Z,16.16
2018-05-23T02:35:18.563Z,16.09
2018-05-23T02:37:46.945Z,16.05
2018-05-23T02:40:15.360Z,16.10
2018-05-23T02:42:44.119Z,16.00
2018-05-23T02:45:12.699Z,15.90
2018-05-23T02:47:41.126Z,15.95
2018-05-23T02:50:09.502Z,15.82
2018-05-23T02:52:37.856Z,15.91
2018-05-23T02:55:06.270Z,15.86
2018-05-23T02:57:35.297Z,15.92
2018-05-23T03:00:04.379Z,15.82
2018-05-23T03:02:33.511Z,15.73
2018-05-23T03:05:01.918Z,15.94
2018-05-23T03:07:30.254Z,15.91
2018-05-23T03:09:58.966Z,15.96
2018-05-23T03:12:27.321Z,15.88
2018-05-23T03:14:55.735Z,15.95
2018-05-23T03:17:25.183Z,15.88
2018-05-23T03:19:54.421Z,15.82
2018-05-23T03:22:23.005Z,15.71
2018-05-23T03:24:51.365Z,15.87
2018-05-23T03:27:19.745Z,15.76
2018-05-23T03:29:48.265Z,15.74
2018-05-23T03:32:16.700Z,15.84
2018-05-23T03:34:45.109Z,15.75
2018-05-23T03:37:14.712Z,15.74
2018-05-23T03:39:43.091Z,15.81
2018-05-23T03:42:13.102Z,15.86
2018-05-23T03:44:41.463Z,15.86
2018-05-23T03:47:10.169Z,15.78
2018-05-23T03:49:39.148Z,15.89
2018-05-23T03:52:08.359Z,15.88
2018-05-23T03:54:37.623Z,15.86
2018-05-23T03:57:06.776Z,15.91
2018-05-23T03:59:46.893Z,15.91
2018-05-23T04:02:27.028Z,15.72
2018-05-23T04:05:08.537Z,15.64
2018-05-23T04:07:38.798Z,15.67
2018-05-23T04:10:07.265Z,15.89
2018-05-23T04:12:35.612Z,15.95
2018-05-23T04:15:04.006Z,15.90
2018-05-23T04:17:34.156Z,15.73
2018-05-23T04:20:03.442Z,15.91
2018-05-23T04:22:32.019Z,15.87
2018-05-23T04:25:01.569Z,15.78
2018-05-23T04:27:30.849Z,15.80
2018-05-23T04:29:59.515Z,15.87
2018-05-23T04:32:27.866Z,15.91
2018-05-23T04:34:56.846Z,15.95
2018-05-23T04:37:25.229Z,16.00
2018-05-23T04:39:53.609Z,16.14
2018-05-23T04:42:21.966Z,16.27
2018-05-23T04:44:50.943Z,16.18
2018-05-23T04:47:20.101Z,16.08
2018-05-23T04:49:48.474Z,16.23
2018-05-23T04:52:16.815Z,16.26
2018-05-23T04:54:45.196Z,16.33
2018-05-23T04:57:14.756Z,16.39
2018-05-23T04:59:43.122Z,16.43
2018-05-23T05:02:12.690Z,16.38
2018-05-23T05:04:41.139Z,16.40
2018-05-23T05:07:10.219Z,16.40
2018-05-23T05:09:38.989Z,16.48
2018-05-23T05:12:07.342Z,16.47
2018-05-23T05:14:36.383Z,16.66
2018-05-23T05:17:04.735Z,16.72
2018-05-23T05:19:34.735Z,16.68
2018-05-23T05:22:03.137Z,16.67
2018-05-23T05:24:32.033Z,16.67
2018-05-23T05:27:00.398Z,16.73
2018-05-23T05:29:29.590Z,16.87
2018-05-23T05:31:57.953Z,16.90
2018-05-23T05:34:27.475Z,16.93
2018-05-23T05:36:55.877Z,16.84
2018-05-23T05:39:24.617Z,16.90
2018-05-23T05:41:53.438Z,17.01
2018-05-23T05:44:21.772Z,17.00
2018-05-23T05:46:50.815Z,17.04
2018-05-23T05:49:19.208Z,17.08
2018-05-23T05:51:47.574Z,17.15
2018-05-23T05:54:15.967Z,17.26
2018-05-23T05:56:44.838Z,17.09
2018-05-23T05:59:15.887Z,17.21
2018-05-23T06:01:44.331Z,17.25
2018-05-23T06:04:12.660Z,17.32
2018-05-23T06:06:41.752Z,17.42
2018-05-23T06:09:10.129Z,17.50
2018-05-23T06:11:39.588Z,17.52
2018-05-23T06:14:08.829Z,17.49
2018-05-23T06:16:38.540Z,17.39
2018-05-23T06:19:07.309Z,17.32
2018-05-23T06:21:37.025Z,17.31
2018-05-23T06:24:05.407Z,17.30
2018-05-23T06:26:34.364Z,17.40
2018-05-23T06:29:03.425Z,17.50
2018-05-23T06:31:32.678Z,17.38
2018-05-23T06:34:02.518Z,17.46
2018-05-23T06:36:32.518Z,17.31
2018-05-23T06:39:00.843Z,17.40
2018-05-23T06:41:29.911Z,17.38
2018-05-23T06:43:59.397Z,17.05
2018-05-23T06:46:28.060Z,17.04
2018-05-23T06:48:56.389Z,17.08
2018-05-23T06:51:26.901Z,16.85
2018-05-23T06:53:55.573Z,16.90
2018-05-23T06:56:24.767Z,16.83
2018-05-23T06:58:54.628Z,16.95
2018-05-23T07:01:23.607Z,16.90
2018-05-23T07:03:52.242Z,16.78
2018-05-23T07:06:22.136Z,16.68
2018-05-23T07:08:50.920Z,16.82
2018-05-23T07:11:20.352Z,16.67
2018-05-23T07:13:48.689Z,16.68
2018-05-23T07:16:18.186Z,16.54
2018-05-23T07:18:46.528Z,16.44
2018-05-23T07:21:15.649Z,16.59
2018-05-23T07:23:44.041Z,16.64
2018-05-23T07:26:12.795Z,16.77
2018-05-23T07:28:41.914Z,16.92
2018-05-23T07:31:10.298Z,17.09
2018-05-23T07:33:38.633Z,17.10
2018-05-23T07:36:07.331Z,17.18
2018-05-23T07:38:36.562Z,17.32
2018-05-23T07:41:04.980Z,17.54
2018-05-23T07:43:33.331Z,17.66
2018-05-23T07:46:01.697Z,17.87
2018-05-23T07:48:30.090Z,18.03
2018-05-23T07:50:58.461Z,18.20
2018-05-23T07:53:26.850Z,18.16
2018-05-23T07:55:55.206Z,18.30
2018-05-23T07:58:23.942Z,18.40
2018-05-23T08:00:52.356Z,18.39
2018-05-23T08:03:20.703Z,18.51
2018-05-23T08:05:49.302Z,18.56
2018-05-23T08:08:18.535Z,18.48
2018-05-23T08:10:47.745Z,18.66
2018-05-23T08:13:16.228Z,18.88
2018-05-23T08:15:44.587Z,19.38
2018-05-23T08:18:13.526Z,19.65
2018-05-23T08:20:41.903Z,19.84
2018-05-23T08:23:10.281Z,19.91
2018-05-23T08:25:39.346Z,20.18
2018-05-23T08:28:07.725Z,20.22
2018-05-23T08:30:36.958Z,20.38
2018-05-23T08:33:05.447Z,20.40
2018-05-23T08:35:33.791Z,20.38
2018-05-23T08:38:02.422Z,20.59
2018-05-23T08:40:31.583Z,20.53
2018-05-23T08:43:00.598Z,20.72
2018-05-23T08:45:28.994Z,20.87
2018-05-23T08:47:57.324Z,20.96
2018-05-23T08:50:25.644Z,21.00
2018-05-23T08:52:54.040Z,20.98
2018-05-23T08:55:24.061Z,21.12
2018-05-23T08:57:52.414Z,21.13
2018-05-23T09:00:22.113Z,20.83
2018-05-23T09:02:50.545Z,21.33
2018-05-23T09:05:19.163Z,21.34
2018-05-23T09:07:47.525Z,21.41
2018-05-23T09:10:15.941Z,21.33
2018-05-23T09:12:45.220Z,21.46
2018-05-23T09:15:14.392Z,21.33
2018-05-23T09:17:43.622Z,21.31
2018-05-23T09:20:13.361Z,21.18
2018-05-23T09:22:41.731Z,21.13
2018-05-23T09:25:10.250Z,21.21
2018-05-23T09:27:39.463Z,21.41
2018-05-23T09:30:08.678Z,21.46
2018-05-23T09:32:37.262Z,21.42
2018-05-23T09:35:06.355Z,21.77
2018-05-23T09:37:35.885Z,21.89
2018-05-23T09:40:05.221Z,22.15
2018-05-23T09:42:34.486Z,22.28
2018-05-23T09:45:03.997Z,22.39
2018-05-23T09:47:34.418Z,22.28
2018-05-23T09:50:03.832Z,22.70
2018-05-23T09:52:32.182Z,23.12
2018-05-23T09:55:00.746Z,23.10
2018-05-23T09:57:29.898Z,23.37
2018-05-23T09:59:58.265Z,23.60
2018-05-23T10:02:26.614Z,23.55
2018-05-23T10:04:55.220Z,24.02
2018-05-23T10:07:24.800Z,24.27
2018-05-23T10:09:53.802Z,24.21
2018-05-23T10:12:22.998Z,24.43
2018-05-23T10:14:52.304Z,24.59
2018-05-23T10:17:21.468Z,24.45
2018-05-23T10:19:50.879Z,24.93
2018-05-23T10:22:20.502Z,24.77
2018-05-23T10:24:49.205Z,25.25
2018-05-23T10:27:18.597Z,25.22
2018-05-23T10:29:47.302Z,25.54
2018-05-23T10:32:15.702Z,24.83
2018-05-23T10:34:45.454Z,25.06
2018-05-23T10:37:13.825Z,25.00
2018-05-23T10:39:42.324Z,25.05
2018-05-23T10:42:11.597Z,25.12
2018-05-23T10:44:39.930Z,25.18
2018-05-23T10:47:08.362Z,25.43
2018-05-23T10:49:36.699Z,26.19
2018-05-23T10:52:05.854Z,26.02
2018-05-23T10:54:35.849Z,25.73
2018-05-23T10:57:04.702Z,26.21
2018-05-23T10:59:33.231Z,26.80
2018-05-23T11:02:01.592Z,26.31
2018-05-23T11:04:31.430Z,26.66
2018-05-23T11:07:00.723Z,26.77
2018-05-23T11:09:30.919Z,26.16
2018-05-23T11:11:59.267Z,26.79
2018-05-23T11:14:29.092Z,27.58
2018-05-23T11:16:57.917Z,27.30
2018-05-23T11:19:26.501Z,27.47
2018-05-23T11:21:54.854Z,27.98
2018-05-23T11:24:23.891Z,28.01
2018-05-23T11:26:53.920Z,28.18
2018-05-23T11:29:23.654Z,27.67
2018-05-23T11:31:52.237Z,27.73
2018-05-23T11:34:20.561Z,27.51
2018-05-23T11:36:49.667Z,27.91
2018-05-23T11:39:18.224Z,28.18
2018-05-23T11:41:46.574Z,28.05
2018-05-23T11:44:15.708Z,27.95
2018-05-23T11:46:44.164Z,28.03
2018-05-23T11:49:12.450Z,28.57
2018-05-23T11:51:40.816Z,28.23
2018-05-23T11:54:10.170Z,28.79
2018-05-23T11:56:39.733Z,28.10
2018-05-23T11:59:09.027Z,27.98
2018-05-23T12:01:37.559Z,28.55
2018-05-23T12:04:05.887Z,28.49
2018-05-23T12:06:35.218Z,28.99
2018-05-23T12:09:03.604Z,28.65
2018-05-23T12:11:32.438Z,28.76
2018-05-23T12:14:01.769Z,28.51
2018-05-23T12:16:31.029Z,28.66
2018-05-23T12:19:00.021Z,29.15
2018-05-23T12:21:30.384Z,29.40
2018-05-23T12:23:59.337Z,29.66
2018-05-23T12:26:28.125Z,29.28
2018-05-23T12:28:57.615Z,28.75
2018-05-23T12:31:26.260Z,29.13
2018-05-23T12:33:54.759Z,29.64
2018-05-23T12:36:23.137Z,28.98
2018-05-23T12:38:52.953Z,28.85
2018-05-23T12:41:22.499Z,29.19
2018-05-23T12:43:52.236Z,29.22
2018-05-23T12:46:20.738Z,29.22
2018-05-23T12:48:50.042Z,29.32
2018-05-23T12:51:18.388Z,29.88
2018-05-23T12:53:46.785Z,30.00
2018-05-23T12:56:15.108Z,29.71
2018-05-23T12:58:43.691Z,29.61
2018-05-23T13:01:12.519Z,29.65
2018-05-23T13:03:40.918Z,29.16
2018-05-23T13:06:09.826Z,30.17
2018-05-23T13:08:40.861Z,29.95
2018-05-23T13:11:09.882Z,29.98
2018-05-23T13:13:38.261Z,30.20
2018-05-23T13:16:06.615Z,30.29
2018-05-23T13:18:35.294Z,30.11
2018-05-23T13:21:03.644Z,29.87
2018-05-23T13:23:32.035Z,30.04
2018-05-23T13:26:00.718Z,29.95
2018-05-23T13:28:29.052Z,29.82
2018-05-23T13:30:57.432Z,30.03
2018-05-23T13:33:31.451Z,30.13
2018-05-23T13:35:59.818Z,30.57
2018-05-23T13:38:28.194Z,29.67
2018-05-23T13:40:56.898Z,31.04
2018-05-23T13:43:26.235Z,30.45
2018-05-23T13:45:54.584Z,30.79
2018-05-23T13:48:22.933Z,30.88
2018-05-23T13:50:51.305Z,30.18
2018-05-23T13:53:19.731Z,30.96
2018-05-23T13:55:48.908Z,30.70
2018-05-23T13:58:17.273Z,30.82
2018-05-23T14:00:46.606Z,31.05
2018-05-23T14:03:14.966Z,31.44
2018-05-23T14:05:44.464Z,30.69
2018-05-23T14:08:12.872Z,31.64
2018-05-23T14:10:41.896Z,30.96
2018-05-23T14:13:10.265Z,29.72
2018-05-23T14:15:39.381Z,30.56
2018-05-23T14:18:07.867Z,31.46
2018-05-23T14:20:36.192Z,31.89
2018-05-23T14:23:04.942Z,31.70
2018-05-23T14:25:34.711Z,31.68
2018-05-23T14:28:03.072Z,31.68
2018-05-23T14:30:32.372Z,32.38
2018-05-23T14:33:00.717Z,31.87
2018-05-23T14:35:29.102Z,30.88
2018-05-23T14:37:58.802Z,30.50
2018-05-23T14:40:27.140Z,30.68
2018-05-23T14:42:56.524Z,30.92
2018-05-23T14:45:24.915Z,30.33
2018-05-23T14:47:53.273Z,29.99
2018-05-23T14:50:23.303Z,29.99
2018-05-23T14:52:51.711Z,29.73
2018-05-23T14:55:20.121Z,30.40
2018-05-23T14:57:48.610Z,29.90
2018-05-23T15:00:17.389Z,29.11
2018-05-23T15:02:46.983Z,29.23
2018-05-23T15:05:15.358Z,30.09
2018-05-23T15:07:44.634Z,30.08
2018-05-23T15:10:13.347Z,30.00
2018-05-23T15:12:41.687Z,29.91
2018-05-23T15:15:10.095Z,28.75
2018-05-23T15:17:38.820Z,28.22
2018-05-23T15:20:07.230Z,28.11
2018-05-23T15:22:35.610Z,27.76
2018-05-23T15:25:04.527Z,27.99
2018-05-23T15:27:36.435Z,27.83
2018-05-23T15:30:04.821Z,27.59
2018-05-23T15:32:34.518Z,27.36
2018-05-23T15:35:02.906Z,27.08
2018-05-23T15:37:32.842Z,26.75
2018-05-23T15:40:02.772Z,26.37
2018-05-23T15:42:31.124Z,26.41
2018-05-23T15:45:02.113Z,26.41
2018-05-23T15:47:30.475Z,26.40
2018-05-23T15:49:58.855Z,26.39
2018-05-23T15:52:27.309Z,25.95
2018-05-23T15:54:56.549Z,26.00
2018-05-23T15:57:24.914Z,26.04
2018-05-23T15:59:55.451Z,26.01
2018-05-23T16:02:24.094Z,25.82
2018-05-23T16:04:53.985Z,25.82
2018-05-23T16:07:22.752Z,25.93
2018-05-23T16:09:51.076Z,26.01
2018-05-23T16:12:21.529Z,25.91
2018-05-23T16:14:50.403Z,25.72
2018-05-23T16:17:19.914Z,26.24
2018-05-23T16:19:48.255Z,26.11
2018-05-23T16:22:17.507Z,26.16
2018-05-23T16:24:45.969Z,26.00
2018-05-23T16:27:14.391Z,25.95
2018-05-23T16:29:43.494Z,25.59
2018-05-23T16:32:13.821Z,25.91
2018-05-23T16:34:43.004Z,25.94
2018-05-23T16:37:12.868Z,25.72
2018-05-23T16:39:43.058Z,26.08
2018-05-23T16:42:11.385Z,25.51
2018-05-23T16:44:39.781Z,25.60
2018-05-23T16:47:08.157Z,25.70
2018-05-23T16:49:37.905Z,25.64
2018-05-23T16:52:06.471Z,25.37
2018-05-23T16:54:35.722Z,25.35
2018-05-23T16:57:04.974Z,25.19
2018-05-23T16:59:33.962Z,25.08
2018-05-23T17:02:02.300Z,24.76
2018-05-23T17:04:32.837Z,25.10
2018-05-23T17:07:02.187Z,25.13
2018-05-23T17:09:32.125Z,24.92
2018-05-23T17:12:00.536Z,24.97
2018-05-23T17:14:29.830Z,24.44
2018-05-23T17:16:58.398Z,24.62
2018-05-23T17:19:26.799Z,24.52
2018-05-23T17:21:55.606Z,24.69
2018-05-23T17:24:24.105Z,24.46
2018-05-23T17:26:52.385Z,24.34
2018-05-23T17:29:20.774Z,24.27
2018-05-23T17:31:49.196Z,24.07
2018-05-23T17:34:17.592Z,24.05
2018-05-23T17:36:46.337Z,23.81
2018-05-23T17:39:15.809Z,23.61
2018-05-23T17:41:44.971Z,23.52
2018-05-23T17:44:13.891Z,23.51
2018-05-23T17:46:42.309Z,23.36
2018-05-23T17:49:11.583Z,23.29
2018-05-23T17:51:40.749Z,23.06
2018-05-23T17:54:09.124Z,23.04
2018-05-23T17:56:38.441Z,23.09
2018-05-23T17:59:07.570Z,22.69
2018-05-23T18:01:36.591Z,22.44
2018-05-23T18:04:04.923Z,22.40
2018-05-23T18:06:33.416Z,22.37
2018-05-23T18:09:03.209Z,22.28
2018-05-23T18:11:32.473Z,22.39
2018-05-23T18:14:00.832Z,22.34
2018-05-23T18:16:29.481Z,22.11
2018-05-23T18:18:58.065Z,21.99
2018-05-23T18:21:26.425Z,22.07
2018-05-23T18:23:54.756Z,21.98
2018-05-23T18:26:23.747Z,21.97
2018-05-23T18:28:52.095Z,21.93
2018-05-23T18:31:21.296Z,21.99
2018-05-23T18:33:49.692Z,21.96
2018-05-23T18:36:19.039Z,22.20
2018-05-23T18:38:47.847Z,22.31
2018-05-23T18:41:16.238Z,22.09
2018-05-23T18:43:44.810Z,22.28
2018-05-23T18:46:13.176Z,22.10
2018-05-23T18:48:42.442Z,22.03
2018-05-23T18:51:11.878Z,21.98
2018-05-23T18:53:40.196Z,22.11
2018-05-23T18:56:08.730Z,22.06
2018-05-23T18:58:37.677Z,21.87
2018-05-23T19:01:06.798Z,21.73
2018-05-23T19:03:35.162Z,21.86
2018-05-23T19:06:03.809Z,21.72
2018-05-23T19:08:33.068Z,21.86
2018-05-23T19:11:01.401Z,21.90
2018-05-23T19:13:29.775Z,21.95
2018-05-23T19:15:58.101Z,22.06
2018-05-23T19:18:26.457Z,21.81
2018-05-23T19:20:56.401Z,21.78
2018-05-23T19:23:25.482Z,21.68
2018-05-23T19:25:53.865Z,21.64
2018-05-23T19:28:23.079Z,21.62
2018-05-23T19:30:51.421Z,21.66
2018-05-23T19:33:19.815Z,21.53
2018-05-23T19:35:49.314Z,21.62
2018-05-23T19:38:18.066Z,21.41
2018-05-23T19:40:47.331Z,21.59
2018-05-23T19:43:16.418Z,21.38
2018-05-23T19:45:44.783Z,21.46
2018-05-23T19:48:14.122Z,21.45
2018-05-23T19:50:42.465Z,21.45
2018-05-23T19:53:10.813Z,21.35
2018-05-23T19:55:39.814Z,21.21
2018-05-23T19:58:08.908Z,21.27
2018-05-23T20:00:37.654Z,21.31
2018-05-23T20:03:06.743Z,21.10
2018-05-23T20:05:36.017Z,20.95
2018-05-23T20:08:05.192Z,20.96
2018-05-23T20:10:34.145Z,20.94
2018-05-23T20:13:02.528Z,20.93
2018-05-23T20:15:30.890Z,20.92
2018-05-23T20:17:59.265Z,21.01
2018-05-23T20:20:27.623Z,21.13
2018-05-23T20:22:56.899Z,21.20
2018-05-23T20:25:25.525Z,21.20
2018-05-23T20:27:54.619Z,21.37
2018-05-23T20:30:23.429Z,21.34
2018-05-23T20:32:52.624Z,21.10
2018-05-23T20:35:21.036Z,21.17
2018-05-23T20:37:50.815Z,21.05
2018-05-23T20:40:20.424Z,20.95
2018-05-23T20:42:48.847Z,20.96
2018-05-23T20:45:17.583Z,21.00
2018-05-23T20:47:46.233Z,20.78
2018-05-23T20:50:15.478Z,20.70
2018-05-23T20:52:44.605Z,20.82
2018-05-23T20:55:12.969Z,20.76
2018-05-23T20:57:42.289Z,20.79
2018-05-23T21:00:11.511Z,20.85
2018-05-23T21:02:40.067Z,20.85
2018-05-23T21:05:09.887Z,20.79
2018-05-23T21:07:38.173Z,20.85
2018-05-23T21:10:06.797Z,20.87
2018-05-23T21:12:35.598Z,20.88
2018-05-23T21:15:05.076Z,20.65
2018-05-23T21:17:34.577Z,20.62
2018-05-23T21:20:02.937Z,20.62
2018-05-23T21:22:31.288Z,20.12
2018-05-23T21:24:59.697Z,19.88
2018-05-23T21:27:28.619Z,20.00
2018-05-23T21:29:58.546Z,20.02
2018-05-23T21:32:26.868Z,20.08
2018-05-23T21:34:55.577Z,20.20
2018-05-23T21:37:24.669Z,20.15
2018-05-23T21:39:53.077Z,20.09
2018-05-23T21:42:21.660Z,20.26
2018-05-23T21:44:51.515Z,20.17
2018-05-23T21:47:19.843Z,20.32
2018-05-23T21:49:48.194Z,20.35
2018-05-23T21:52:16.685Z,20.34
2018-05-23T21:54:45.349Z,20.21
2018-05-23T21:57:13.742Z,20.27
2018-05-23T21:59:42.369Z,20.33
2018-05-23T22:02:10.693Z,20.18
2018-05-23T22:04:39.313Z,20.16
2018-05-23T22:07:07.692Z,20.15
2018-05-23T22:09:36.119Z,20.18
2018-05-23T22:12:05.293Z,20.16
2018-05-23T22:14:34.079Z,20.18
2018-05-23T22:17:02.737Z,20.19
2018-05-23T22:19:31.439Z,20.10
2018-05-23T22:21:59.789Z,20.11
2018-05-23T22:24:29.159Z,20.17
2018-05-23T22:26:57.466Z,20.07
2018-05-23T22:29:25.833Z,19.92
2018-05-23T22:31:54.302Z,19.99
2018-05-23T22:34:22.660Z,19.86
2018-05-23T22:36:50.986Z,20.00
2018-05-23T22:39:19.346Z,20.01
2018-05-23T22:41:47.673Z,19.98
2018-05-23T22:44:16.028Z,20.00
2018-05-23T22:46:44.922Z,20.08
2018-05-23T22:49:14.010Z,20.10
2018-05-23T22:51:43.283Z,20.04
2018-05-23T22:54:12.094Z,20.03
2018-05-23T22:56:41.233Z,19.82
2018-05-23T22:59:09.918Z,19.95
2018-05-23T23:01:40.426Z,19.95
2018-05-23T23:04:09.426Z,19.83
2018-05-23T23:06:39.011Z,19.70
2018-05-23T23:09:07.384Z,19.84
2018-05-23T23:11:35.768Z,19.86
2018-05-23T23:14:04.854Z,19.77
2018-05-23T23:16:34.093Z,19.65
2018-05-23T23:19:02.765Z,19.55
2018-05-23T23:21:31.677Z,19.57
2018-05-23T23:24:00.878Z,19.59
2018-05-23T23:26:30.023Z,19.80
2018-05-23T23:28:59.329Z,19.79
2018-05-23T23:31:28.453Z,19.52
2018-05-23T23:33:56.836Z,19.53
2018-05-23T23:36:25.612Z,19.53
2018-05-23T23:38:54.745Z,19.58
2018-05-23T23:41:23.511Z,19.62
2018-05-23T23:43:51.857Z,19.79
2018-05-23T23:46:20.258Z,19.80
2018-05-23T23:48:50.500Z,19.94
2018-05-23T23:51:19.587Z,19.89
2018-05-23T23:53:47.930Z,19.83
2018-05-23T23:56:16.299Z,19.68
2018-05-23T23:58:44.974Z,19.80
